Time;durP1;ratioP1;P1;durP2;ratioP2;P2;SDS_P1;SDS_P2;PMS_P1;PMS_P2;Temp;Humidity;BMP_temperature;BMP_pressure;BME280_temperature;BME280_humidity;BME280_pressure;Samples;Min_cycle;Max_cycle;Signal;HPM_P1;HPM_P2
2021/04/30 00:01:18;;;;;;;13.70;6.07;;;7.40;71.30;;;;;;5035203;28;20955;-82
2021/04/30 00:03:45;;;;;;;13.45;5.30;;;7.40;71.30;;;;;;5035960;28;20479;-82
2021/04/30 00:06:10;;;;;;;11.00;6.40;;;7.50;71.40;;;;;;5036931;28;20182;-82
2021/04/30 00:08:38;;;;;;;7.27;6.07;;;7.40;71.20;;;;;;5037245;28;20416;-82
2021/04/30 00:11:04;;;;;;;8.20;6.45;;;7.40;71.20;;;;;;5038181;28;20193;-83
2021/04/30 00:13:30;;;;;;;7.53;6.23;;;7.40;71.20;;;;;;5041402;28;20206;-82
2021/04/30 00:15:55;;;;;;;14.93;6.70;;;7.40;71.20;;;;;;5034706;28;20470;-82
2021/04/30 00:18:22;;;;;;;6.43;5.20;;;7.40;71.20;;;;;;5033809;28;20424;-83
2021/04/30 00:20:55;;;;;;;15.00;6.75;;;7.30;71.30;;;;;;5033209;28;20194;-83
2021/04/30 00:23:28;;;;;;;10.73;6.60;;;7.30;71.30;;;;;;5037174;28;20205;-82
2021/04/30 00:25:56;;;;;;;18.50;7.57;;;7.20;71.50;;;;;;5038534;28;20693;-83
2021/04/30 00:28:23;;;;;;;8.30;6.30;;;7.20;71.60;;;;;;5037550;28;20638;-82
2021/04/30 00:30:50;;;;;;;9.82;6.97;;;7.30;71.60;;;;;;5036458;28;20181;-83
2021/04/30 00:33:16;;;;;;;12.98;6.72;;;7.20;71.50;;;;;;5037822;28;20300;-82
2021/04/30 00:35:42;;;;;;;9.77;5.80;;;7.30;71.70;;;;;;5037676;28;20209;-82
2021/04/30 00:38:08;;;;;;;10.02;6.38;;;7.20;71.80;;;;;;5037824;28;20417;-83
2021/04/30 00:40:35;;;;;;;11.18;6.93;;;7.20;72.00;;;;;;5036749;28;20611;-83
2021/04/30 00:43:00;;;;;;;13.60;7.30;;;7.20;72.10;;;;;;5037937;28;20198;-82
2021/04/30 00:45:26;;;;;;;10.07;6.57;;;7.10;73.10;;;;;;5037077;28;20266;-82
2021/04/30 00:47:53;;;;;;;7.83;6.47;;;7.00;72.50;;;;;;5036877;28;20174;-82
2021/04/30 00:50:23;;;;;;;8.02;6.53;;;7.20;73.30;;;;;;5038376;28;20180;-82
2021/04/30 00:52:48;;;;;;;8.25;6.78;;;7.10;72.50;;;;;;5035849;28;20205;-82
2021/04/30 00:55:16;;;;;;;8.83;6.77;;;7.20;72.50;;;;;;5036977;28;20588;-82
2021/04/30 00:57:49;;;;;;;10.93;8.15;;;7.20;72.60;;;;;;5036381;28;20467;-82
2021/04/30 01:00:16;;;;;;;13.43;7.55;;;7.20;72.50;;;;;;5037296;28;20188;-82
2021/04/30 01:02:42;;;;;;;13.77;7.18;;;7.10;72.50;;;;;;5036282;28;20217;-82
2021/04/30 01:05:10;;;;;;;11.53;6.70;;;7.00;72.70;;;;;;5037502;28;20540;-82
2021/04/30 01:07:36;;;;;;;11.68;8.23;;;7.20;72.80;;;;;;5035954;28;20503;-82
2021/04/30 01:10:03;;;;;;;14.37;8.10;;;7.10;72.80;;;;;;5036037;28;20211;-82
2021/04/30 01:12:29;;;;;;;10.27;7.15;;;7.00;72.70;;;;;;5034441;28;20209;-82
2021/04/30 01:14:54;;;;;;;14.75;8.75;;;7.10;72.70;;;;;;5035853;28;20196;-82
2021/04/30 01:17:20;;;;;;;10.77;7.33;;;7.10;72.80;;;;;;5035655;28;20661;-82
2021/04/30 01:19:46;;;;;;;14.07;8.50;;;7.20;72.90;;;;;;5037102;28;20181;-82
2021/04/30 01:22:12;;;;;;;8.80;7.83;;;7.10;73.00;;;;;;5039146;28;20197;-82
2021/04/30 01:24:37;;;;;;;15.00;7.70;;;7.20;72.90;;;;;;5041275;28;20220;-82
2021/04/30 01:27:04;;;;;;;17.43;7.73;;;7.20;72.90;;;;;;5043152;28;20546;-83
2021/04/30 01:29:30;;;;;;;13.15;7.82;;;7.20;72.80;;;;;;5040885;28;20424;-83
2021/04/30 01:31:56;;;;;;;19.60;7.57;;;7.20;72.80;;;;;;5040769;28;20194;-83
2021/04/30 01:34:22;;;;;;;11.10;7.82;;;7.20;73.00;;;;;;5040524;28;20309;-82
2021/04/30 01:36:49;;;;;;;9.05;6.63;;;7.30;72.90;;;;;;5035576;28;20228;-83
2021/04/30 01:39:15;;;;;;;15.98;8.23;;;7.30;72.80;;;;;;5036349;28;20178;-83
2021/04/30 01:41:42;;;;;;;14.63;7.70;;;7.20;72.80;;;;;;5036446;28;20209;-83
2021/04/30 01:44:10;;;;;;;15.75;9.05;;;7.30;73.00;;;;;;5036943;28;20463;-83
2021/04/30 01:46:36;;;;;;;10.05;8.02;;;7.20;73.00;;;;;;5036893;28;20181;-82
2021/04/30 01:49:04;;;;;;;13.23;7.82;;;7.20;73.00;;;;;;5036641;28;20202;-82
2021/04/30 01:51:30;;;;;;;14.50;9.57;;;7.30;73.20;;;;;;5036141;28;20175;-82
2021/04/30 01:53:56;;;;;;;14.30;7.87;;;7.20;73.30;;;;;;5036595;28;20247;-83
2021/04/30 01:56:22;;;;;;;10.57;8.20;;;7.20;73.30;;;;;;5036843;28;20811;-83
2021/04/30 01:58:47;;;;;;;15.93;8.30;;;7.20;73.40;;;;;;5036877;28;20804;-83
2021/04/30 02:01:13;;;;;;;23.57;10.57;;;7.10;73.40;;;;;;5035832;28;20483;-83
2021/04/30 02:03:40;;;;;;;15.43;8.70;;;7.10;73.60;;;;;;5035920;28;20232;-82
2021/04/30 02:06:05;;;;;;;12.23;9.38;;;7.20;73.50;;;;;;5036936;28;20412;-83
2021/04/30 02:08:31;;;;;;;16.60;9.93;;;7.10;73.50;;;;;;5036716;28;20193;-82
2021/04/30 02:10:57;;;;;;;14.03;9.17;;;7.10;73.60;;;;;;5036038;28;20178;-83
2021/04/30 02:13:23;;;;;;;48.00;12.23;;;7.00;73.70;;;;;;5038012;28;20444;-82
2021/04/30 02:15:52;;;;;;;22.07;11.53;;;7.10;74.00;;;;;;5036960;28;20216;-82
2021/04/30 02:18:18;;;;;;;20.98;11.32;;;7.10;74.10;;;;;;5038615;28;20266;-82
2021/04/30 02:20:44;;;;;;;14.57;10.82;;;7.10;74.00;;;;;;5037769;28;20255;-83
2021/04/30 02:23:10;;;;;;;18.77;10.48;;;7.10;74.00;;;;;;5036896;28;20681;-82
2021/04/30 02:25:37;;;;;;;19.02;10.45;;;7.20;74.00;;;;;;5037103;28;20628;-82
2021/04/30 02:28:04;;;;;;;19.20;11.18;;;7.20;74.00;;;;;;5036366;28;20181;-82
2021/04/30 02:30:32;;;;;;;20.10;12.20;;;7.20;73.70;;;;;;5036759;28;20177;-82
2021/04/30 02:32:59;;;;;;;20.85;10.07;;;7.10;73.80;;;;;;5037838;28;20259;-82
2021/04/30 02:35:46;;;;;;;19.15;10.77;;;7.20;74.00;;;;;;5036336;28;20181;-83
2021/04/30 02:38:14;;;;;;;14.20;10.27;;;7.10;73.90;;;;;;5046128;28;20181;-82
2021/04/30 02:40:42;;;;;;;17.13;9.75;;;7.10;74.10;;;;;;5042562;28;20641;-82
2021/04/30 02:43:11;;;;;;;18.67;10.50;;;7.10;74.10;;;;;;5037347;28;20288;-82
2021/04/30 02:45:38;;;;;;;15.05;10.88;;;7.10;74.20;;;;;;5036329;28;20178;-82
2021/04/30 02:48:21;;;;;;;15.63;10.32;;;7.10;74.20;;;;;;5035525;28;20300;-82
2021/04/30 02:50:47;;;;;;;15.60;10.02;;;7.10;74.20;;;;;;5036092;28;20178;-82
2021/04/30 02:53:12;;;;;;;21.77;11.13;;;7.10;74.30;;;;;;5037594;28;20228;-82
2021/04/30 02:55:38;;;;;;;26.90;12.03;;;7.10;74.40;;;;;;5036315;28;20586;-82
2021/04/30 02:58:04;;;;;;;18.53;9.20;;;7.20;74.40;;;;;;5038395;28;20174;-82
2021/04/30 03:00:30;;;;;;;18.57;10.50;;;7.20;74.40;;;;;;5037586;28;20193;-83
2021/04/30 03:02:56;;;;;;;17.13;9.85;;;7.20;74.40;;;;;;5036097;28;20318;-82
2021/04/30 03:05:22;;;;;;;19.05;10.25;;;7.20;74.40;;;;;;5036040;28;20248;-82
2021/04/30 03:07:48;;;;;;;19.83;12.13;;;7.30;74.50;;;;;;5036357;28;20170;-82
2021/04/30 03:10:15;;;;;;;18.53;10.67;;;7.30;74.40;;;;;;5034860;28;20269;-82
2021/04/30 03:12:41;;;;;;;18.63;11.60;;;7.40;74.30;;;;;;5034632;28;20703;-82
2021/04/30 03:15:08;;;;;;;16.88;11.30;;;7.40;74.30;;;;;;5034934;28;20188;-82
2021/04/30 03:17:34;;;;;;;16.75;11.00;;;7.40;74.20;;;;;;5034607;28;20205;-82
2021/04/30 03:19:59;;;;;;;19.23;11.52;;;7.40;74.10;;;;;;5035046;28;20209;-82
2021/04/30 03:22:25;;;;;;;19.10;11.30;;;7.40;74.00;;;;;;5033738;28;20197;-82
2021/04/30 03:24:51;;;;;;;21.00;11.40;;;7.40;74.00;;;;;;5035074;28;20602;-82
2021/04/30 03:27:17;;;;;;;19.25;12.38;;;7.40;74.10;;;;;;5034849;28;20174;-82
2021/04/30 03:29:43;;;;;;;20.00;11.20;;;7.40;74.20;;;;;;5034960;28;20550;-83
2021/04/30 03:32:08;;;;;;;20.50;11.87;;;7.40;74.30;;;;;;5033772;28;20437;-83
2021/04/30 03:34:35;;;;;;;16.67;11.27;;;7.50;74.40;;;;;;5034687;28;20633;-82
2021/04/30 03:37:02;;;;;;;17.13;10.38;;;7.70;74.30;;;;;;5034842;28;20178;-82
2021/04/30 03:39:28;;;;;;;21.05;12.48;;;7.90;73.80;;;;;;5034978;28;20558;-82
2021/04/30 03:41:53;;;;;;;19.08;12.38;;;7.60;73.10;;;;;;5034984;28;20194;-83
2021/04/30 03:44:19;;;;;;;15.37;10.83;;;7.60;73.10;;;;;;5035130;28;20259;-82
2021/04/30 03:46:45;;;;;;;20.83;11.53;;;7.60;73.00;;;;;;5035729;28;20553;-82
2021/04/30 03:49:10;;;;;;;15.00;11.10;;;7.60;72.90;;;;;;5036057;28;20185;-82
2021/04/30 03:51:36;;;;;;;22.57;11.33;;;7.70;72.80;;;;;;5043888;28;20180;-82
2021/04/30 03:54:02;;;;;;;22.87;12.30;;;7.50;73.00;;;;;;5021501;28;20329;-82
2021/04/30 03:56:28;;;;;;;21.83;12.80;;;7.70;73.00;;;;;;5018965;28;20181;-82
2021/04/30 03:58:53;;;;;;;22.03;12.07;;;7.50;73.00;;;;;;5035130;28;20413;-82
2021/04/30 04:01:19;;;;;;;22.60;13.33;;;7.40;73.40;;;;;;5036807;28;20201;-82
2021/04/30 04:03:45;;;;;;;21.43;12.20;;;7.40;73.60;;;;;;5040482;28;20240;-82
2021/04/30 04:06:11;;;;;;;23.17;12.70;;;7.40;73.80;;;;;;5041797;28;20629;-82
2021/04/30 04:08:36;;;;;;;21.87;13.63;;;7.40;74.00;;;;;;5041231;28;20204;-82
2021/04/30 04:11:02;;;;;;;24.47;12.90;;;7.30;74.20;;;;;;5041726;28;20485;-82
2021/04/30 04:13:28;;;;;;;22.63;13.63;;;7.30;74.50;;;;;;5040985;28;20574;-82
2021/04/30 04:15:57;;;;;;;24.43;13.40;;;7.30;74.60;;;;;;5041743;28;20241;-82
2021/04/30 04:18:24;;;;;;;26.63;13.38;;;7.20;74.70;;;;;;5039479;28;20424;-82
2021/04/30 04:20:51;;;;;;;22.77;14.65;;;7.20;74.80;;;;;;5035011;28;20189;-83
2021/04/30 04:23:16;;;;;;;23.30;15.43;;;7.10;75.00;;;;;;5037058;28;20206;-83
2021/04/30 04:25:42;;;;;;;27.37;14.17;;;7.00;75.20;;;;;;5039940;28;20178;-82
2021/04/30 04:28:08;;;;;;;22.23;14.67;;;7.10;75.50;;;;;;5038286;28;20413;-82
2021/04/30 04:30:34;;;;;;;23.38;15.02;;;7.00;75.60;;;;;;5037861;28;20272;-83
2021/04/30 04:33:01;;;;;;;25.40;14.10;;;7.00;75.70;;;;;;5038526;28;20209;-82
2021/04/30 04:35:27;;;;;;;20.83;14.50;;;7.00;75.90;;;;;;5040380;28;20488;-82
2021/04/30 04:37:53;;;;;;;29.55;15.48;;;7.00;76.00;;;;;;5039131;28;20185;-82
2021/04/30 04:40:19;;;;;;;20.13;13.60;;;7.00;76.00;;;;;;5038466;28;20185;-82
2021/04/30 04:42:45;;;;;;;29.80;14.60;;;7.00;76.10;;;;;;5038104;28;20201;-82
2021/04/30 04:45:13;;;;;;;23.60;14.95;;;7.10;76.20;;;;;;5038678;28;20177;-83
2021/04/30 04:47:39;;;;;;;28.20;14.43;;;7.40;75.90;;;;;;5038023;28;20730;-82
2021/04/30 04:50:06;;;;;;;22.85;14.65;;;7.30;75.60;;;;;;5039343;28;20170;-82
2021/04/30 04:52:32;;;;;;;32.42;15.23;;;7.30;75.50;;;;;;5037511;28;20263;-82
2021/04/30 04:54:58;;;;;;;24.33;15.57;;;7.30;75.40;;;;;;5037790;28;20190;-82
2021/04/30 04:57:23;;;;;;;20.00;13.70;;;7.40;75.20;;;;;;5038567;28;20189;-82
2021/04/30 04:59:49;;;;;;;27.13;14.57;;;7.50;75.20;;;;;;5038317;28;20424;-83
2021/04/30 05:02:15;;;;;;;26.70;14.70;;;7.50;74.80;;;;;;5039803;28;20278;-82
2021/04/30 05:04:40;;;;;;;30.20;14.90;;;7.60;74.70;;;;;;5040022;28;20178;-82
2021/04/30 05:07:06;;;;;;;21.73;13.80;;;7.60;74.60;;;;;;5038208;28;20178;-82
2021/04/30 05:09:32;;;;;;;18.50;14.27;;;7.70;74.50;;;;;;5037792;28;20205;-82
2021/04/30 05:11:57;;;;;;;22.40;14.40;;;7.70;74.30;;;;;;5038331;28;20201;-83
2021/04/30 05:14:24;;;;;;;23.37;16.83;;;8.00;73.90;;;;;;5039594;28;20186;-84
2021/04/30 05:16:50;;;;;;;21.20;15.40;;;8.10;73.60;;;;;;5039343;28;20186;-83
2021/04/30 05:19:16;;;;;;;21.97;16.60;;;8.10;73.10;;;;;;5039966;28;20250;-83
2021/04/30 05:21:45;;;;;;;22.60;16.92;;;7.90;72.70;;;;;;5038802;28;20273;-83
2021/04/30 05:24:14;;;;;;;28.10;17.55;;;8.00;72.60;;;;;;5039799;28;20558;-83
2021/04/30 05:26:41;;;;;;;29.75;15.88;;;7.90;72.50;;;;;;5039913;28;20265;-84
2021/04/30 05:29:07;;;;;;;26.98;14.00;;;8.00;72.40;;;;;;5039294;28;20182;-83
2021/04/30 05:31:34;;;;;;;25.10;14.60;;;7.90;72.30;;;;;;5038899;28;20834;-84
2021/04/30 05:34:01;;;;;;;25.42;14.82;;;8.00;72.50;;;;;;5038541;28;20189;-83
2021/04/30 05:36:26;;;;;;;21.40;15.07;;;8.10;72.40;;;;;;5038715;28;20189;-83
2021/04/30 05:38:52;;;;;;;25.33;16.17;;;8.00;72.30;;;;;;5040733;28;20177;-83
2021/04/30 05:41:18;;;;;;;32.00;15.77;;;8.10;72.20;;;;;;5038502;28;20174;-85
2021/04/30 05:43:44;;;;;;;27.47;17.60;;;8.40;72.00;;;;;;5052297;28;20210;-85
2021/04/30 05:46:09;;;;;;;22.53;14.87;;;8.40;71.50;;;;;;5058540;28;20169;-84
2021/04/30 05:48:35;;;;;;;27.60;13.47;;;8.90;71.00;;;;;;5057987;28;20202;-86
2021/04/30 05:51:01;;;;;;;19.77;13.53;;;8.90;70.10;;;;;;5057220;28;20170;-86
2021/04/30 05:53:27;;;;;;;16.38;12.80;;;9.00;69.20;;;;;;5058555;28;20182;-85
2021/04/30 05:55:53;;;;;;;18.77;14.23;;;9.70;69.10;;;;;;5058080;28;20178;-85
2021/04/30 05:58:20;;;;;;;19.33;13.87;;;10.10;67.10;;;;;;5055414;28;20189;-85
2021/04/30 06:00:46;;;;;;;21.45;12.88;;;10.50;65.20;;;;;;5051035;28;20900;-87
2021/04/30 06:03:12;;;;;;;19.47;12.50;;;11.10;63.80;;;;;;5036956;28;20263;-86
2021/04/30 06:05:37;;;;;;;26.63;13.93;;;11.30;62.40;;;;;;5034862;28;20170;-87
2021/04/30 06:08:03;;;;;;;23.27;12.27;;;11.70;61.60;;;;;;5035628;28;20182;-86
2021/04/30 06:10:29;;;;;;;19.63;14.63;;;12.20;60.30;;;;;;5037079;28;20408;-86
2021/04/30 06:12:57;;;;;;;24.03;11.80;;;12.20;58.90;;;;;;5040137;28;20466;-86
2021/04/30 06:15:22;;;;;;;19.52;13.73;;;12.50;58.00;;;;;;5036276;28;20420;-85
2021/04/30 06:17:49;;;;;;;20.27;14.10;;;12.60;57.00;;;;;;5035343;28;20185;-86
2021/04/30 06:20:14;;;;;;;25.88;12.90;;;12.30;57.20;;;;;;5040491;28;20257;-86
2021/04/30 06:22:40;;;;;;;18.00;12.17;;;12.60;57.60;;;;;;5037142;28;20249;-86
2021/04/30 06:25:06;;;;;;;15.50;12.60;;;13.40;55.80;;;;;;5037677;28;20205;-86
2021/04/30 06:27:33;;;;;;;17.83;11.70;;;14.20;54.30;;;;;;5039902;28;20232;-86
2021/04/30 06:29:58;;;;;;;21.80;11.27;;;14.10;52.60;;;;;;5038860;28;20174;-86
2021/04/30 06:32:24;;;;;;;20.90;12.80;;;14.20;52.40;;;;;;5038153;28;20220;-86
2021/04/30 06:34:50;;;;;;;19.77;12.73;;;13.90;52.70;;;;;;5039186;28;20180;-86
2021/04/30 06:37:17;;;;;;;14.23;12.50;;;13.70;53.00;;;;;;5041458;28;20182;-86
2021/04/30 06:39:42;;;;;;;18.25;12.40;;;13.90;53.30;;;;;;5040047;28;20421;-86
2021/04/30 06:42:08;;;;;;;16.27;12.27;;;13.90;54.20;;;;;;5040068;28;20202;-85
2021/04/30 06:44:34;;;;;;;18.13;11.70;;;14.60;52.80;;;;;;5041837;28;20614;-86
2021/04/30 06:47:00;;;;;;;15.37;12.37;;;15.00;51.20;;;;;;5040004;28;20190;-86
2021/04/30 06:49:26;;;;;;;20.40;13.35;;;15.80;49.50;;;;;;5041938;28;20223;-86
2021/04/30 06:51:52;;;;;;;12.90;11.07;;;16.40;47.40;;;;;;5047324;28;20224;-85
2021/04/30 06:54:19;;;;;;;17.88;12.43;;;17.00;45.60;;;;;;5046436;28;20478;-86
2021/04/30 06:56:45;;;;;;;17.23;10.80;;;17.40;43.20;;;;;;5047287;28;20181;-85
2021/04/30 06:59:11;;;;;;;19.65;12.05;;;18.60;42.30;;;;;;5045484;28;20182;-86
2021/04/30 07:01:38;;;;;;;25.83;11.00;;;18.50;40.60;;;;;;5045736;28;20190;-85
2021/04/30 07:04:07;;;;;;;14.65;10.65;;;19.60;39.40;;;;;;5051540;28;20273;-87
2021/04/30 07:06:34;;;;;;;23.48;11.02;;;19.90;37.40;;;;;;5053482;28;20182;-87
2021/04/30 07:09:00;;;;;;;20.33;10.20;;;19.80;37.00;;;;;;5050217;28;20228;-86
2021/04/30 07:11:25;;;;;;;24.47;11.30;;;20.00;37.30;;;;;;5037928;28;20932;-84
2021/04/30 07:13:51;;;;;;;20.17;11.13;;;19.50;37.20;;;;;;5036285;28;20459;-84
2021/04/30 07:16:23;;;;;;;13.67;10.23;;;19.00;38.10;;;;;;5037071;28;20228;-84
2021/04/30 07:18:49;;;;;;;14.52;10.93;;;18.60;39.10;;;;;;5037657;28;20178;-86
2021/04/30 07:21:16;;;;;;;19.42;11.68;;;17.50;40.50;;;;;;5039975;28;20190;-85
2021/04/30 07:23:42;;;;;;;12.65;11.15;;;16.50;43.10;;;;;;5044674;28;20206;-85
2021/04/30 07:26:08;;;;;;;24.33;12.70;;;16.40;44.80;;;;;;5043233;28;20181;-84
2021/04/30 07:28:34;;;;;;;22.95;10.80;;;16.00;45.60;;;;;;5041428;28;20707;-86
2021/04/30 07:31:02;;;;;;;12.00;10.07;;;15.80;46.60;;;;;;5037979;28;20182;-84
2021/04/30 07:33:31;;;;;;;21.63;10.70;;;15.40;47.60;;;;;;5040694;28;20645;-85
2021/04/30 07:35:58;;;;;;;17.05;9.70;;;14.90;48.70;;;;;;5038896;28;20178;-84
2021/04/30 07:38:24;;;;;;;14.60;9.43;;;14.70;50.10;;;;;;5039698;28;20651;-85
2021/04/30 07:40:50;;;;;;;13.35;8.35;;;14.60;50.70;;;;;;5038573;28;20272;-85
2021/04/30 07:43:17;;;;;;;17.90;7.00;;;14.30;51.70;;;;;;5039722;28;20304;-84
2021/04/30 07:45:45;;;;;;;18.48;7.68;;;14.10;52.00;;;;;;5039346;28;20180;-85
2021/04/30 07:48:13;;;;;;;10.98;6.53;;;13.90;52.50;;;;;;5039778;28;20247;-84
2021/04/30 07:50:41;;;;;;;17.85;8.40;;;13.70;53.00;;;;;;5036758;28;20177;-85
2021/04/30 07:53:08;;;;;;;11.25;6.78;;;13.70;53.30;;;;;;5037644;28;20213;-85
2021/04/30 07:55:39;;;;;;;9.20;6.10;;;13.20;53.90;;;;;;5037481;28;20188;-85
2021/04/30 07:58:05;;;;;;;10.05;7.43;;;12.40;55.30;;;;;;5037584;28;20198;-85
2021/04/30 08:00:37;;;;;;;17.83;7.83;;;12.30;57.00;;;;;;5038558;28;20182;-84
2021/04/30 08:03:05;;;;;;;13.00;7.57;;;12.10;57.50;;;;;;5042323;28;20222;-82
2021/04/30 08:05:30;;;;;;;13.48;6.00;;;11.70;58.20;;;;;;5043354;28;20182;-85
2021/04/30 08:08:03;;;;;;;15.20;8.07;;;11.50;59.20;;;;;;5041189;28;20513;-84
2021/04/30 08:10:29;;;;;;;10.50;7.57;;;11.50;59.60;;;;;;5039201;28;20908;-85
2021/04/30 08:12:55;;;;;;;12.77;9.53;;;11.20;60.30;;;;;;5039349;28;20205;-83
2021/04/30 08:15:21;;;;;;;10.07;7.00;;;10.90;61.50;;;;;;5040791;28;20416;-84
2021/04/30 08:17:47;;;;;;;17.60;8.23;;;11.00;62.40;;;;;;5039938;28;20186;-84
2021/04/30 08:20:17;;;;;;;19.17;8.63;;;10.90;62.00;;;;;;5040295;28;20186;-84
2021/04/30 08:22:43;;;;;;;15.00;8.73;;;11.00;62.20;;;;;;5037820;28;20236;-84
2021/04/30 08:25:09;;;;;;;15.60;9.50;;;11.30;62.10;;;;;;5038848;28;20317;-85
2021/04/30 08:27:41;;;;;;;21.33;8.20;;;11.20;61.50;;;;;;5037193;28;20166;-85
2021/04/30 08:30:11;;;;;;;13.27;8.68;;;11.00;62.00;;;;;;5021232;28;20189;-84
2021/04/30 08:32:40;;;;;;;17.35;8.88;;;10.90;62.70;;;;;;5036693;28;20206;-86
2021/04/30 08:35:08;;;;;;;13.10;8.27;;;11.50;62.60;;;;;;5038835;28;20201;-84
2021/04/30 08:37:34;;;;;;;19.92;9.07;;;11.80;61.40;;;;;;5037285;28;20228;-84
2021/04/30 08:40:00;;;;;;;14.63;9.73;;;12.00;60.30;;;;;;5037895;28;20213;-84
2021/04/30 08:42:35;;;;;;;16.33;9.40;;;12.10;60.10;;;;;;5037804;28;20217;-83
2021/04/30 08:45:03;;;;;;;17.20;9.02;;;12.30;59.40;;;;;;5038400;28;20232;-83
2021/04/30 08:47:28;;;;;;;14.93;8.57;;;12.30;59.00;;;;;;5041674;28;20174;-84
2021/04/30 08:49:55;;;;;;;20.87;8.80;;;12.50;58.60;;;;;;5041109;28;20208;-82
2021/04/30 08:52:21;;;;;;;17.02;9.25;;;12.80;58.30;;;;;;5041252;28;20296;-82
2021/04/30 08:54:53;;;;;;;11.18;8.52;;;13.00;57.40;;;;;;5042311;28;20174;-82
2021/04/30 08:57:25;;;;;;;13.70;8.40;;;13.20;56.30;;;;;;5041877;28;20178;-83
2021/04/30 08:59:59;;;;;;;16.35;8.95;;;13.20;55.40;;;;;;5042102;28;20205;-82
2021/04/30 09:02:32;;;;;;;12.57;8.48;;;13.00;55.50;;;;;;5042071;28;20214;-83
2021/04/30 09:04:59;;;;;;;17.30;8.77;;;13.00;55.90;;;;;;5042577;28;20182;-83
2021/04/30 09:07:26;;;;;;;13.75;10.35;;;13.20;56.00;;;;;;5044329;28;20202;-83
2021/04/30 09:10:19;;;;;;;14.40;9.35;;;13.50;55.00;;;;;;5043962;28;20228;-83
2021/04/30 09:13:11;;;;;;;13.98;9.38;;;13.70;54.50;;;;;;5042454;28;20272;-83
2021/04/30 09:15:40;;;;;;;17.45;10.23;;;14.10;52.40;;;;;;5042518;28;20178;-82
2021/04/30 09:18:18;;;;;;;13.90;10.60;;;14.20;51.60;;;;;;5044836;28;20190;-82
2021/04/30 09:20:45;;;;;;;16.15;11.85;;;14.00;51.40;;;;;;5048076;28;20228;-82
2021/04/30 09:23:36;;;;;;;14.02;10.98;;;13.50;51.50;;;;;;5049594;28;20268;-82
2021/04/30 09:26:21;;;;;;;16.33;9.70;;;13.50;52.70;;;;;;5054189;28;20181;-83
2021/04/30 09:29:10;;;;;;;19.27;10.68;;;13.70;53.50;;;;;;5048706;28;20173;-83
2021/04/30 09:31:41;;;;;;;19.25;10.43;;;13.50;52.00;;;;;;5018578;28;20181;-82
2021/04/30 09:34:25;;;;;;;16.25;12.77;;;13.60;52.30;;;;;;5019847;28;20182;-82
2021/04/30 09:37:00;;;;;;;20.20;12.07;;;12.90;53.80;;;;;;5020898;28;20179;-83
2021/04/30 09:39:26;;;;;;;15.43;9.75;;;12.60;54.60;;;;;;5020437;28;20201;-82
2021/04/30 09:42:12;;;;;;;18.92;9.50;;;12.10;56.10;;;;;;5021787;28;20199;-82
2021/04/30 09:44:40;;;;;;;14.45;8.88;;;12.10;57.80;;;;;;5021252;28;20281;-82
2021/04/30 09:47:15;;;;;;;16.45;8.70;;;12.20;57.70;;;;;;5021083;28;20268;-83
2021/04/30 09:49:42;;;;;;;16.25;9.27;;;12.00;59.40;;;;;;5020701;28;20189;-82
2021/04/30 09:52:08;;;;;;;12.00;7.57;;;12.10;60.60;;;;;;5021807;28;20203;-83
2021/04/30 09:54:36;;;;;;;16.27;9.18;;;12.30;59.80;;;;;;5034684;28;20194;-82
2021/04/30 09:57:22;;;;;;;15.48;8.80;;;12.20;59.00;;;;;;5046129;28;20178;-83
2021/04/30 10:00:11;;;;;;;12.80;9.52;;;12.20;59.00;;;;;;5049813;28;20173;-83
2021/04/30 10:02:37;;;;;;;13.85;8.98;;;12.20;59.10;;;;;;5038668;28;20221;-83
2021/04/30 10:05:14;;;;;;;17.92;9.77;;;12.30;58.50;;;;;;5040680;28;20181;-81
2021/04/30 10:07:42;;;;;;;13.43;9.18;;;12.30;58.00;;;;;;5039848;28;20170;-81
2021/04/30 10:10:12;;;;;;;12.13;9.35;;;12.60;58.00;;;;;;5039232;28;20584;-81
2021/04/30 10:12:40;;;;;;;15.68;8.10;;;12.20;57.50;;;;;;5039348;28;20228;-82
2021/04/30 10:15:08;;;;;;;15.70;8.35;;;12.40;57.80;;;;;;5039589;28;20174;-82
2021/04/30 10:17:36;;;;;;;14.10;8.25;;;12.10;58.40;;;;;;5040957;28;20178;-81
2021/04/30 10:20:06;;;;;;;15.68;9.30;;;11.90;59.30;;;;;;5040479;28;20205;-81
2021/04/30 10:22:39;;;;;;;17.48;9.63;;;11.70;59.40;;;;;;5042514;28;20198;-82
2021/04/30 10:25:08;;;;;;;13.68;9.00;;;11.70;59.40;;;;;;5044576;28;20174;-81
2021/04/30 10:27:44;;;;;;;15.43;9.55;;;11.80;59.50;;;;;;5052569;28;20197;-82
2021/04/30 10:30:45;;;;;;;16.58;9.48;;;11.80;59.80;;;;;;5041452;28;20181;-89
2021/04/30 10:33:19;;;;;;;19.25;9.25;;;11.90;60.00;;;;;;5041087;28;20713;-89
2021/04/30 10:35:45;;;;;;;12.90;8.32;;;11.90;59.70;;;;;;5043823;28;20232;-86
2021/04/30 10:38:16;;;;;;;15.43;9.20;;;11.90;59.70;;;;;;5039286;28;20178;-87
2021/04/30 10:41:07;;;;;;;12.25;8.55;;;11.60;60.40;;;;;;5036643;28;20646;-85
2021/04/30 10:43:34;;;;;;;11.27;8.45;;;12.10;60.80;;;;;;5039556;28;20202;-86
2021/04/30 10:46:13;;;;;;;9.48;7.43;;;12.30;61.40;;;;;;5046531;28;20189;-86
2021/04/30 10:49:07;;;;;;;14.80;7.80;;;12.30;61.80;;;;;;5043658;28;20215;-86
2021/04/30 10:51:38;;;;;;;16.48;8.10;;;12.30;60.70;;;;;;5036981;28;20246;-86
2021/04/30 10:54:26;;;;;;;15.30;8.25;;;12.40;60.90;;;;;;5043714;28;20169;-86
2021/04/30 10:57:12;;;;;;;12.75;8.30;;;12.30;61.60;;;;;;5042183;28;20646;-86
2021/04/30 10:59:40;;;;;;;11.18;6.60;;;12.50;62.40;;;;;;5040680;28;20177;-86
2021/04/30 11:02:09;;;;;;;12.18;8.38;;;12.70;61.50;;;;;;5038950;28;20225;-86
2021/04/30 11:04:34;;;;;;;8.13;7.18;;;12.80;61.10;;;;;;5040352;28;20217;-86
2021/04/30 11:07:00;;;;;;;13.27;8.20;;;13.00;60.20;;;;;;5038899;28;20201;-86
2021/04/30 11:09:35;;;;;;;9.90;7.13;;;13.10;60.00;;;;;;5041092;28;20174;-85
2021/04/30 11:12:22;;;;;;;9.80;7.97;;;13.40;58.90;;;;;;5042437;28;20436;-86
2021/04/30 11:15:08;;;;;;;8.88;6.95;;;13.20;56.90;;;;;;5045434;28;20520;-86
2021/04/30 11:17:55;;;;;;;22.80;7.20;;;13.10;56.80;;;;;;5045378;28;20185;-87
2021/04/30 11:20:28;;;;;;;8.93;6.80;;;12.80;57.70;;;;;;5035591;28;20272;-87
2021/04/30 11:23:14;;;;;;;12.10;6.93;;;12.80;59.20;;;;;;5041108;28;20219;-87
2021/04/30 11:25:58;;;;;;;11.45;7.18;;;12.80;59.70;;;;;;5032796;28;20177;-87
2021/04/30 11:28:30;;;;;;;9.88;7.43;;;12.80;60.60;;;;;;5032109;28;20263;-87
2021/04/30 11:31:09;;;;;;;14.10;7.75;;;12.70;60.00;;;;;;5034836;28;20633;-87
2021/04/30 11:33:44;;;;;;;26.48;7.80;;;12.50;61.10;;;;;;5035240;28;20205;-87
2021/04/30 11:36:12;;;;;;;14.57;8.30;;;12.50;61.20;;;;;;5039512;28;20283;-85
2021/04/30 11:38:50;;;;;;;9.38;7.40;;;12.50;60.10;;;;;;5029405;28;20200;-86
2021/04/30 11:41:16;;;;;;;12.80;7.88;;;12.70;58.50;;;;;;5032612;28;20288;-86
2021/04/30 11:43:49;;;;;;;13.63;8.25;;;12.80;59.10;;;;;;5032791;28;20221;-84
2021/04/30 11:46:15;;;;;;;12.07;7.97;;;13.00;59.20;;;;;;5038039;28;20174;-86
2021/04/30 11:48:43;;;;;;;16.67;7.63;;;12.90;59.90;;;;;;5039201;28;20208;-85
2021/04/30 11:51:11;;;;;;;10.23;7.30;;;12.70;61.10;;;;;;5038596;28;20425;-86
2021/04/30 11:53:39;;;;;;;8.88;7.85;;;12.60;60.80;;;;;;5038610;28;20221;-86
2021/04/30 11:56:06;;;;;;;18.38;7.90;;;12.70;61.20;;;;;;5040486;28;20217;-86
2021/04/30 11:58:39;;;;;;;9.60;7.65;;;12.90;61.40;;;;;;5039456;28;20201;-85
2021/04/30 12:01:06;;;;;;;11.30;6.95;;;13.00;60.10;;;;;;5038618;28;20201;-86
2021/04/30 12:03:54;;;;;;;10.98;8.00;;;12.90;57.70;;;;;;5040172;28;20217;-86
2021/04/30 12:06:22;;;;;;;8.93;6.45;;;12.70;57.40;;;;;;5037205;28;20578;-86
2021/04/30 12:08:50;;;;;;;10.98;7.15;;;12.70;56.70;;;;;;5038143;28;20174;-86
2021/04/30 12:11:31;;;;;;;9.48;6.25;;;12.80;58.40;;;;;;5032797;28;20172;-85
2021/04/30 12:13:59;;;;;;;13.27;8.10;;;13.30;57.40;;;;;;5031803;28;20174;-86
2021/04/30 12:16:24;;;;;;;6.43;5.35;;;13.40;56.40;;;;;;5033288;28;20239;-85
2021/04/30 12:18:55;;;;;;;9.40;7.87;;;13.90;56.40;;;;;;5034903;28;20182;-85
2021/04/30 12:21:32;;;;;;;10.65;6.55;;;13.70;54.20;;;;;;5035512;28;20444;-86
2021/04/30 12:24:01;;;;;;;11.35;6.97;;;13.50;54.70;;;;;;5037901;28;20210;-86
2021/04/30 12:26:32;;;;;;;15.90;8.32;;;13.60;54.50;;;;;;5037374;28;20268;-86
2021/04/30 12:28:59;;;;;;;16.13;8.40;;;13.80;54.40;;;;;;5037848;28;20179;-86
2021/04/30 12:31:25;;;;;;;11.05;7.40;;;13.60;53.70;;;;;;5037374;28;20231;-88
2021/04/30 12:33:53;;;;;;;10.35;8.10;;;13.60;53.90;;;;;;5041102;28;20219;-88
2021/04/30 12:36:26;;;;;;;17.85;8.98;;;13.90;53.90;;;;;;5037296;28;20641;-88
2021/04/30 12:38:58;;;;;;;11.98;8.98;;;14.10;53.50;;;;;;5037482;28;20174;-87
2021/04/30 12:41:26;;;;;;;14.95;8.40;;;14.00;52.40;;;;;;5036640;28;20188;-87
2021/04/30 12:43:56;;;;;;;13.00;9.60;;;14.20;51.70;;;;;;5037398;28;20236;-87
2021/04/30 12:46:24;;;;;;;16.08;9.32;;;14.20;51.70;;;;;;5038120;28;20206;-87